This is the latest recevied weather packets stored in our database for station/object IZ5MMH-14. If no packets are shown the sender has not sent any weather packets the latest 10 day(s).
| Time | Temp. | Humidity | Pressure | Rain* | Wind** | Luminosity | Snow |
|---|---|---|---|---|---|---|---|
| 1777807809 | 24.44° C | 53% | 1020.6 hPa | - | - | - | - |
| 1777807210 | 23.89° C | 52% | 1020.6 hPa | - | - | - | - |
| 1777806610 | 23.33° C | 54% | 1020.6 hPa | - | - | - | - |
| 1777806009 | 24.44° C | 52% | 1020.5 hPa | - | - | - | - |
| 1777805409 | 24.44° C | 52% | 1020.6 hPa | - | - | - | - |
| 1777804810 | 24.44° C | 51% | 1020.7 hPa | - | - | - | - |
| 1777804209 | 24.44° C | 55% | 1020.6 hPa | - | - | - | - |
| 1777803609 | 23.89° C | 61% | 1020.8 hPa | - | - | - | - |
| 1777803010 | 23.89° C | 57% | 1020.8 hPa | - | - | - | - |
| 1777802409 | 23.89° C | 50% | 1021 hPa | - | - | - | - |
| 1777801809 | 23.89° C | 53% | 1021 hPa | - | - | - | - |
| 1777801209 | 23.89° C | 54% | 1021 hPa | - | - | - | - |
| 1777800609 | 22.78° C | 58% | 1020.9 hPa | - | - | - | - |
| 1777800009 | 23.33° C | 58% | 1020.9 hPa | - | - | - | - |
| 1777799409 | 22.78° C | 66% | 1020.9 hPa | - | - | - | - |
| 1777798809 | 22.22° C | 66% | 1020.8 hPa | - | - | - | - |
| 1777798209 | 22.22° C | 70% | 1020.9 hPa | - | - | - | - |
| 1777797610 | 22.78° C | 68% | 1020.8 hPa | - | - | - | - |
| 1777797009 | 21.67° C | 74% | 1020.7 hPa | - | - | - | - |
| 1777796409 | 22.22° C | 71% | 1020.6 hPa | - | - | - | - |
| 1777795809 | 21.67° C | 75% | 1020.5 hPa | - | - | - | - |
| 1777795209 | 22.22° C | 74% | 1020.5 hPa | - | - | - | - |
| 1777794609 | 21.67° C | 77% | 1020.4 hPa | - | - | - | - |
| 1777794009 | 20.56° C | 82% | 1020.5 hPa | - | - | - | - |
| 1777793409 | 21.67° C | 79% | 1020.6 hPa | - | - | - | - |
* Rain since midnight (hover to see other rain measurements)
** Current wind speed in m/s (hover to see current wind gust speed)